sensor_id;sensor_type;location;lat;lon;timestamp;P1;durP1;ratioP1;P2;durP2;ratioP2
26034;SDS011;13809;48.632;11.576;2023-07-13T00:01:02;3.30;;;2.73;;
26034;SDS011;13809;48.632;11.576;2023-07-13T00:06:05;2.67;;;2.47;;
26034;SDS011;13809;48.632;11.576;2023-07-13T00:11:11;3.53;;;2.63;;
26034;SDS011;13809;48.632;11.576;2023-07-13T00:16:14;2.90;;;2.70;;
26034;SDS011;13809;48.632;11.576;2023-07-13T00:21:17;3.90;;;2.80;;
26034;SDS011;13809;48.632;11.576;2023-07-13T00:26:22;3.27;;;2.80;;
26034;SDS011;13809;48.632;11.576;2023-07-13T00:31:26;2.77;;;2.57;;
26034;SDS011;13809;48.632;11.576;2023-07-13T00:36:29;3.00;;;2.43;;
26034;SDS011;13809;48.632;11.576;2023-07-13T00:41:35;3.20;;;2.60;;
26034;SDS011;13809;48.632;11.576;2023-07-13T00:46:38;4.70;;;2.70;;
26034;SDS011;13809;48.632;11.576;2023-07-13T00:51:45;3.37;;;2.77;;
26034;SDS011;13809;48.632;11.576;2023-07-13T00:56:53;2.70;;;2.60;;
26034;SDS011;13809;48.632;11.576;2023-07-13T01:01:59;3.30;;;2.50;;
26034;SDS011;13809;48.632;11.576;2023-07-13T01:07:04;4.43;;;2.80;;
26034;SDS011;13809;48.632;11.576;2023-07-13T01:12:10;2.60;;;2.40;;
26034;SDS011;13809;48.632;11.576;2023-07-13T01:17:15;3.20;;;2.90;;
26034;SDS011;13809;48.632;11.576;2023-07-13T01:22:20;4.13;;;2.70;;
26034;SDS011;13809;48.632;11.576;2023-07-13T01:27:26;3.97;;;3.00;;
26034;SDS011;13809;48.632;11.576;2023-07-13T01:32:30;3.03;;;2.83;;
26034;SDS011;13809;48.632;11.576;2023-07-13T01:37:37;3.40;;;3.10;;
26034;SDS011;13809;48.632;11.576;2023-07-13T01:42:40;4.13;;;3.20;;
26034;SDS011;13809;48.632;11.576;2023-07-13T01:47:43;4.40;;;3.43;;
26034;SDS011;13809;48.632;11.576;2023-07-13T01:52:48;3.97;;;3.57;;
26034;SDS011;13809;48.632;11.576;2023-07-13T01:57:51;3.60;;;3.30;;
26034;SDS011;13809;48.632;11.576;2023-07-13T02:02:54;5.57;;;3.47;;
26034;SDS011;13809;48.632;11.576;2023-07-13T02:07:59;3.73;;;3.43;;
26034;SDS011;13809;48.632;11.576;2023-07-13T02:13:03;5.07;;;3.57;;
26034;SDS011;13809;48.632;11.576;2023-07-13T02:18:07;4.63;;;4.17;;
26034;SDS011;13809;48.632;11.576;2023-07-13T02:23:11;5.40;;;4.50;;
26034;SDS011;13809;48.632;11.576;2023-07-13T02:28:15;5.33;;;4.33;;
26034;SDS011;13809;48.632;11.576;2023-07-13T02:33:18;4.73;;;4.33;;
26034;SDS011;13809;48.632;11.576;2023-07-13T02:38:22;5.00;;;4.33;;
26034;SDS011;13809;48.632;11.576;2023-07-13T02:43:26;5.00;;;4.50;;
26034;SDS011;13809;48.632;11.576;2023-07-13T02:48:29;5.30;;;4.80;;
26034;SDS011;13809;48.632;11.576;2023-07-13T02:53:34;5.47;;;5.07;;
26034;SDS011;13809;48.632;11.576;2023-07-13T02:58:37;7.30;;;5.27;;
26034;SDS011;13809;48.632;11.576;2023-07-13T03:03:41;5.97;;;5.07;;
26034;SDS011;13809;48.632;11.576;2023-07-13T03:08:45;5.63;;;5.13;;
26034;SDS011;13809;48.632;11.576;2023-07-13T03:13:50;5.80;;;5.03;;
26034;SDS011;13809;48.632;11.576;2023-07-13T03:18:54;6.00;;;5.40;;
26034;SDS011;13809;48.632;11.576;2023-07-13T03:23:59;5.77;;;5.23;;
26034;SDS011;13809;48.632;11.576;2023-07-13T03:29:02;5.27;;;4.87;;
26034;SDS011;13809;48.632;11.576;2023-07-13T03:34:05;5.33;;;4.83;;
26034;SDS011;13809;48.632;11.576;2023-07-13T03:39:10;6.53;;;4.70;;
26034;SDS011;13809;48.632;11.576;2023-07-13T03:44:15;5.03;;;4.53;;
26034;SDS011;13809;48.632;11.576;2023-07-13T03:49:19;4.90;;;4.50;;
26034;SDS011;13809;48.632;11.576;2023-07-13T03:54:23;4.90;;;4.03;;
26034;SDS011;13809;48.632;11.576;2023-07-13T03:59:27;4.57;;;3.80;;
26034;SDS011;13809;48.632;11.576;2023-07-13T04:04:30;4.43;;;3.80;;
26034;SDS011;13809;48.632;11.576;2023-07-13T04:09:34;3.97;;;3.50;;
26034;SDS011;13809;48.632;11.576;2023-07-13T04:14:38;3.97;;;3.50;;
26034;SDS011;13809;48.632;11.576;2023-07-13T04:19:41;4.23;;;3.43;;
26034;SDS011;13809;48.632;11.576;2023-07-13T04:24:46;3.73;;;3.07;;
26034;SDS011;13809;48.632;11.576;2023-07-13T04:29:49;3.90;;;2.77;;
26034;SDS011;13809;48.632;11.576;2023-07-13T04:34:53;3.43;;;3.07;;
26034;SDS011;13809;48.632;11.576;2023-07-13T04:39:58;4.10;;;3.00;;
26034;SDS011;13809;48.632;11.576;2023-07-13T04:45:01;5.23;;;3.00;;
26034;SDS011;13809;48.632;11.576;2023-07-13T04:50:05;4.10;;;3.07;;
26034;SDS011;13809;48.632;11.576;2023-07-13T04:55:10;3.57;;;2.50;;
26034;SDS011;13809;48.632;11.576;2023-07-13T05:00:14;4.53;;;3.00;;
26034;SDS011;13809;48.632;11.576;2023-07-13T05:05:17;5.77;;;2.60;;
26034;SDS011;13809;48.632;11.576;2023-07-13T05:10:22;2.83;;;2.40;;
26034;SDS011;13809;48.632;11.576;2023-07-13T05:15:26;5.60;;;2.77;;
26034;SDS011;13809;48.632;11.576;2023-07-13T05:20:29;6.17;;;2.80;;
26034;SDS011;13809;48.632;11.576;2023-07-13T05:25:34;3.17;;;2.67;;
26034;SDS011;13809;48.632;11.576;2023-07-13T05:30:37;4.60;;;2.90;;
26034;SDS011;13809;48.632;11.576;2023-07-13T05:35:40;3.50;;;2.30;;
26034;SDS011;13809;48.632;11.576;2023-07-13T05:40:45;2.33;;;2.23;;
26034;SDS011;13809;48.632;11.576;2023-07-13T05:45:48;4.27;;;2.53;;
26034;SDS011;13809;48.632;11.576;2023-07-13T05:50:53;3.40;;;2.47;;
26034;SDS011;13809;48.632;11.576;2023-07-13T05:55:58;5.10;;;2.40;;
26034;SDS011;13809;48.632;11.576;2023-07-13T06:01:04;3.00;;;2.17;;
26034;SDS011;13809;48.632;11.576;2023-07-13T06:06:09;4.47;;;2.50;;
26034;SDS011;13809;48.632;11.576;2023-07-13T06:11:15;2.63;;;2.27;;
26034;SDS011;13809;48.632;11.576;2023-07-13T06:16:22;3.80;;;2.27;;
26034;SDS011;13809;48.632;11.576;2023-07-13T06:21:26;2.70;;;2.20;;
26034;SDS011;13809;48.632;11.576;2023-07-13T06:26:31;2.70;;;2.50;;
26034;SDS011;13809;48.632;11.576;2023-07-13T06:31:34;2.60;;;1.90;;
26034;SDS011;13809;48.632;11.576;2023-07-13T06:36:37;2.43;;;2.10;;
26034;SDS011;13809;48.632;11.576;2023-07-13T06:41:42;5.37;;;2.43;;
26034;SDS011;13809;48.632;11.576;2023-07-13T06:46:45;3.33;;;2.00;;
26034;SDS011;13809;48.632;11.576;2023-07-13T06:51:48;2.23;;;2.03;;
26034;SDS011;13809;48.632;11.576;2023-07-13T06:56:53;2.10;;;1.90;;
26034;SDS011;13809;48.632;11.576;2023-07-13T07:01:56;3.97;;;1.93;;
26034;SDS011;13809;48.632;11.576;2023-07-13T07:06:59;1.80;;;1.70;;
26034;SDS011;13809;48.632;11.576;2023-07-13T07:12:04;3.60;;;1.93;;
26034;SDS011;13809;48.632;11.576;2023-07-13T07:17:08;2.00;;;1.80;;
26034;SDS011;13809;48.632;11.576;2023-07-13T07:22:11;3.37;;;2.03;;
26034;SDS011;13809;48.632;11.576;2023-07-13T07:27:16;2.83;;;1.80;;
26034;SDS011;13809;48.632;11.576;2023-07-13T07:32:22;2.17;;;1.77;;
26034;SDS011;13809;48.632;11.576;2023-07-13T07:37:28;2.80;;;1.80;;
26034;SDS011;13809;48.632;11.576;2023-07-13T07:42:36;2.70;;;1.60;;
26034;SDS011;13809;48.632;11.576;2023-07-13T07:47:39;3.40;;;2.00;;
26034;SDS011;13809;48.632;11.576;2023-07-13T07:52:42;3.27;;;1.90;;
26034;SDS011;13809;48.632;11.576;2023-07-13T07:57:47;4.37;;;2.00;;
26034;SDS011;13809;48.632;11.576;2023-07-13T08:02:54;4.47;;;2.50;;
26034;SDS011;13809;48.632;11.576;2023-07-13T08:08:17;2.33;;;2.13;;
26034;SDS011;13809;48.632;11.576;2023-07-13T08:13:21;1.90;;;1.80;;
26034;SDS011;13809;48.632;11.576;2023-07-13T08:18:24;3.27;;;2.10;;
26034;SDS011;13809;48.632;11.576;2023-07-13T08:23:29;4.23;;;2.20;;
26034;SDS011;13809;48.632;11.576;2023-07-13T08:28:35;2.57;;;2.00;;
26034;SDS011;13809;48.632;11.576;2023-07-13T08:33:39;2.57;;;2.03;;
26034;SDS011;13809;48.632;11.576;2023-07-13T08:38:42;1.80;;;1.70;;
26034;SDS011;13809;48.632;11.576;2023-07-13T08:43:47;3.23;;;1.70;;
26034;SDS011;13809;48.632;11.576;2023-07-13T08:48:53;2.60;;;1.77;;
26034;SDS011;13809;48.632;11.576;2023-07-13T08:54:01;1.90;;;1.50;;
26034;SDS011;13809;48.632;11.576;2023-07-13T08:59:11;2.00;;;1.50;;
26034;SDS011;13809;48.632;11.576;2023-07-13T09:04:18;2.00;;;1.80;;
26034;SDS011;13809;48.632;11.576;2023-07-13T09:09:26;2.87;;;1.33;;
26034;SDS011;13809;48.632;11.576;2023-07-13T09:14:43;2.53;;;1.63;;
26034;SDS011;13809;48.632;11.576;2023-07-13T09:19:53;1.60;;;1.50;;
26034;SDS011;13809;48.632;11.576;2023-07-13T09:25:00;2.33;;;1.70;;
26034;SDS011;13809;48.632;11.576;2023-07-13T09:35:39;2.43;;;1.50;;
26034;SDS011;13809;48.632;11.576;2023-07-13T09:40:49;3.13;;;1.87;;
26034;SDS011;13809;48.632;11.576;2023-07-13T09:46:02;2.17;;;1.50;;
26034;SDS011;13809;48.632;11.576;2023-07-13T09:51:12;1.80;;;1.70;;
26034;SDS011;13809;48.632;11.576;2023-07-13T09:56:21;2.37;;;1.70;;
26034;SDS011;13809;48.632;11.576;2023-07-13T10:01:33;1.70;;;1.60;;
26034;SDS011;13809;48.632;11.576;2023-07-13T10:06:38;2.20;;;1.70;;
26034;SDS011;13809;48.632;11.576;2023-07-13T10:11:44;2.37;;;1.57;;
26034;SDS011;13809;48.632;11.576;2023-07-13T10:16:49;1.40;;;1.30;;
26034;SDS011;13809;48.632;11.576;2023-07-13T10:21:56;1.57;;;1.40;;
26034;SDS011;13809;48.632;11.576;2023-07-13T10:27:01;1.93;;;1.60;;
26034;SDS011;13809;48.632;11.576;2023-07-13T10:32:14;2.87;;;1.43;;
26034;SDS011;13809;48.632;11.576;2023-07-13T10:37:18;1.73;;;1.50;;
26034;SDS011;13809;48.632;11.576;2023-07-13T10:42:40;3.67;;;1.57;;
26034;SDS011;13809;48.632;11.576;2023-07-13T10:47:51;1.50;;;1.40;;
26034;SDS011;13809;48.632;11.576;2023-07-13T10:53:01;2.83;;;1.73;;
26034;SDS011;13809;48.632;11.576;2023-07-13T10:58:13;1.80;;;1.43;;
26034;SDS011;13809;48.632;11.576;2023-07-13T11:03:22;2.90;;;1.80;;
26034;SDS011;13809;48.632;11.576;2023-07-13T11:08:32;3.63;;;1.80;;
26034;SDS011;13809;48.632;11.576;2023-07-13T11:13:56;2.13;;;1.60;;
26034;SDS011;13809;48.632;11.576;2023-07-13T11:24:50;2.13;;;1.60;;
26034;SDS011;13809;48.632;11.576;2023-07-13T11:30:06;1.60;;;1.50;;
26034;SDS011;13809;48.632;11.576;2023-07-13T11:35:14;3.10;;;1.70;;
26034;SDS011;13809;48.632;11.576;2023-07-13T11:40:26;2.30;;;1.70;;
26034;SDS011;13809;48.632;11.576;2023-07-13T11:45:31;4.60;;;1.60;;
26034;SDS011;13809;48.632;11.576;2023-07-13T11:50:51;1.67;;;1.57;;
26034;SDS011;13809;48.632;11.576;2023-07-13T11:55:59;4.63;;;1.40;;
26034;SDS011;13809;48.632;11.576;2023-07-13T12:01:03;2.77;;;1.50;;
26034;SDS011;13809;48.632;11.576;2023-07-13T12:06:19;1.67;;;1.57;;
26034;SDS011;13809;48.632;11.576;2023-07-13T12:11:34;3.03;;;1.60;;
26034;SDS011;13809;48.632;11.576;2023-07-13T12:16:42;3.37;;;1.63;;
26034;SDS011;13809;48.632;11.576;2023-07-13T12:21:46;1.53;;;1.43;;
26034;SDS011;13809;48.632;11.576;2023-07-13T12:26:52;3.27;;;1.40;;
26034;SDS011;13809;48.632;11.576;2023-07-13T12:31:57;2.40;;;1.70;;
26034;SDS011;13809;48.632;11.576;2023-07-13T12:37:01;1.63;;;1.53;;
26034;SDS011;13809;48.632;11.576;2023-07-13T12:42:13;1.77;;;1.43;;
26034;SDS011;13809;48.632;11.576;2023-07-13T12:47:25;2.10;;;1.50;;
26034;SDS011;13809;48.632;11.576;2023-07-13T12:52:29;3.40;;;1.97;;
26034;SDS011;13809;48.632;11.576;2023-07-13T12:57:39;1.70;;;1.60;;
26034;SDS011;13809;48.632;11.576;2023-07-13T13:02:44;1.73;;;1.50;;
26034;SDS011;13809;48.632;11.576;2023-07-13T13:07:48;2.93;;;1.60;;
26034;SDS011;13809;48.632;11.576;2023-07-13T13:12:52;2.97;;;1.70;;
26034;SDS011;13809;48.632;11.576;2023-07-13T13:17:56;2.07;;;1.50;;
26034;SDS011;13809;48.632;11.576;2023-07-13T13:23:00;1.60;;;1.50;;
26034;SDS011;13809;48.632;11.576;2023-07-13T13:28:05;1.93;;;1.60;;
26034;SDS011;13809;48.632;11.576;2023-07-13T13:33:14;1.50;;;1.40;;
26034;SDS011;13809;48.632;11.576;2023-07-13T13:38:20;1.40;;;1.30;;
26034;SDS011;13809;48.632;11.576;2023-07-13T13:43:28;1.47;;;1.20;;
26034;SDS011;13809;48.632;11.576;2023-07-13T13:48:32;1.60;;;1.50;;
26034;SDS011;13809;48.632;11.576;2023-07-13T13:53:40;2.00;;;1.60;;
26034;SDS011;13809;48.632;11.576;2023-07-13T13:58:45;2.43;;;1.50;;
26034;SDS011;13809;48.632;11.576;2023-07-13T14:03:48;1.53;;;1.20;;
26034;SDS011;13809;48.632;11.576;2023-07-13T14:08:53;1.50;;;1.40;;
26034;SDS011;13809;48.632;11.576;2023-07-13T14:13:58;1.27;;;1.20;;
26034;SDS011;13809;48.632;11.576;2023-07-13T14:19:04;1.60;;;1.50;;
26034;SDS011;13809;48.632;11.576;2023-07-13T14:24:09;1.70;;;1.53;;
26034;SDS011;13809;48.632;11.576;2023-07-13T14:29:14;2.33;;;1.80;;
26034;SDS011;13809;48.632;11.576;2023-07-13T14:34:23;1.43;;;1.40;;
26034;SDS011;13809;48.632;11.576;2023-07-13T14:39:27;1.40;;;1.30;;
26034;SDS011;13809;48.632;11.576;2023-07-13T14:44:31;1.90;;;1.47;;
26034;SDS011;13809;48.632;11.576;2023-07-13T14:49:36;1.60;;;1.50;;
26034;SDS011;13809;48.632;11.576;2023-07-13T14:54:41;2.07;;;1.60;;
26034;SDS011;13809;48.632;11.576;2023-07-13T14:59:47;1.70;;;1.60;;
26034;SDS011;13809;48.632;11.576;2023-07-13T15:04:52;3.07;;;1.73;;
26034;SDS011;13809;48.632;11.576;2023-07-13T15:09:56;1.70;;;1.60;;
26034;SDS011;13809;48.632;11.576;2023-07-13T15:15:01;1.63;;;1.50;;
26034;SDS011;13809;48.632;11.576;2023-07-13T15:20:05;1.60;;;1.50;;
26034;SDS011;13809;48.632;11.576;2023-07-13T15:25:17;1.77;;;1.37;;
26034;SDS011;13809;48.632;11.576;2023-07-13T15:30:24;2.10;;;1.37;;
26034;SDS011;13809;48.632;11.576;2023-07-13T15:35:29;4.13;;;1.53;;
26034;SDS011;13809;48.632;11.576;2023-07-13T15:40:32;1.60;;;1.50;;
26034;SDS011;13809;48.632;11.576;2023-07-13T15:45:37;1.40;;;1.30;;
26034;SDS011;13809;48.632;11.576;2023-07-13T15:50:42;2.70;;;1.37;;
26034;SDS011;13809;48.632;11.576;2023-07-13T15:55:49;2.10;;;1.50;;
26034;SDS011;13809;48.632;11.576;2023-07-13T16:00:54;3.37;;;1.60;;
26034;SDS011;13809;48.632;11.576;2023-07-13T16:05:58;1.40;;;1.30;;
26034;SDS011;13809;48.632;11.576;2023-07-13T16:11:01;1.50;;;1.40;;
26034;SDS011;13809;48.632;11.576;2023-07-13T16:16:09;1.87;;;1.40;;
26034;SDS011;13809;48.632;11.576;2023-07-13T16:21:14;3.10;;;1.33;;
26034;SDS011;13809;48.632;11.576;2023-07-13T16:26:22;1.63;;;1.53;;
26034;SDS011;13809;48.632;11.576;2023-07-13T16:31:31;1.90;;;1.47;;
26034;SDS011;13809;48.632;11.576;2023-07-13T16:36:36;1.43;;;1.33;;
26034;SDS011;13809;48.632;11.576;2023-07-13T16:41:39;1.63;;;1.50;;
26034;SDS011;13809;48.632;11.576;2023-07-13T16:46:46;1.90;;;1.47;;
26034;SDS011;13809;48.632;11.576;2023-07-13T16:51:51;1.43;;;1.30;;
26034;SDS011;13809;48.632;11.576;2023-07-13T16:56:54;1.80;;;1.50;;
26034;SDS011;13809;48.632;11.576;2023-07-13T17:01:59;2.17;;;1.30;;
26034;SDS011;13809;48.632;11.576;2023-07-13T17:07:06;1.40;;;1.30;;
26034;SDS011;13809;48.632;11.576;2023-07-13T17:12:12;3.13;;;1.50;;
26034;SDS011;13809;48.632;11.576;2023-07-13T17:17:17;1.40;;;1.30;;
26034;SDS011;13809;48.632;11.576;2023-07-13T17:22:25;1.53;;;1.23;;
26034;SDS011;13809;48.632;11.576;2023-07-13T17:27:29;1.33;;;1.23;;
26034;SDS011;13809;48.632;11.576;2023-07-13T17:32:35;1.40;;;1.30;;
26034;SDS011;13809;48.632;11.576;2023-07-13T17:37:38;3.50;;;1.50;;
26034;SDS011;13809;48.632;11.576;2023-07-13T17:42:42;1.83;;;1.30;;
26034;SDS011;13809;48.632;11.576;2023-07-13T17:47:46;1.77;;;1.40;;
26034;SDS011;13809;48.632;11.576;2023-07-13T17:52:51;1.90;;;1.37;;
26034;SDS011;13809;48.632;11.576;2023-07-13T17:57:54;1.67;;;1.30;;
26034;SDS011;13809;48.632;11.576;2023-07-13T18:02:59;4.83;;;1.50;;
26034;SDS011;13809;48.632;11.576;2023-07-13T18:08:08;2.63;;;1.40;;
26034;SDS011;13809;48.632;11.576;2023-07-13T18:13:22;1.63;;;1.23;;
26034;SDS011;13809;48.632;11.576;2023-07-13T18:18:28;1.30;;;1.20;;
26034;SDS011;13809;48.632;11.576;2023-07-13T18:23:33;1.40;;;1.30;;
26034;SDS011;13809;48.632;11.576;2023-07-13T18:28:36;2.17;;;1.50;;
26034;SDS011;13809;48.632;11.576;2023-07-13T18:33:42;1.40;;;1.30;;
26034;SDS011;13809;48.632;11.576;2023-07-13T18:38:47;1.53;;;1.30;;
26034;SDS011;13809;48.632;11.576;2023-07-13T18:43:50;2.67;;;1.60;;
26034;SDS011;13809;48.632;11.576;2023-07-13T18:48:55;2.60;;;1.30;;
26034;SDS011;13809;48.632;11.576;2023-07-13T18:53:58;4.43;;;1.70;;
26034;SDS011;13809;48.632;11.576;2023-07-13T18:59:02;2.37;;;1.50;;
26034;SDS011;13809;48.632;11.576;2023-07-13T19:04:25;1.47;;;1.37;;
26034;SDS011;13809;48.632;11.576;2023-07-13T19:09:30;4.87;;;1.80;;
26034;SDS011;13809;48.632;11.576;2023-07-13T19:14:34;2.13;;;1.40;;
26034;SDS011;13809;48.632;11.576;2023-07-13T19:19:39;1.93;;;1.40;;
26034;SDS011;13809;48.632;11.576;2023-07-13T19:24:42;2.43;;;1.60;;
26034;SDS011;13809;48.632;11.576;2023-07-13T19:29:46;1.97;;;1.60;;
26034;SDS011;13809;48.632;11.576;2023-07-13T19:34:50;4.30;;;1.60;;
26034;SDS011;13809;48.632;11.576;2023-07-13T19:39:55;1.97;;;1.80;;
26034;SDS011;13809;48.632;11.576;2023-07-13T19:44:59;4.13;;;1.90;;
26034;SDS011;13809;48.632;11.576;2023-07-13T19:50:04;2.70;;;1.67;;
26034;SDS011;13809;48.632;11.576;2023-07-13T19:55:11;2.77;;;1.67;;
26034;SDS011;13809;48.632;11.576;2023-07-13T20:00:18;1.90;;;1.70;;
26034;SDS011;13809;48.632;11.576;2023-07-13T20:05:24;1.77;;;1.33;;
26034;SDS011;13809;48.632;11.576;2023-07-13T20:10:28;2.90;;;1.70;;
26034;SDS011;13809;48.632;11.576;2023-07-13T20:15:33;2.10;;;1.47;;
26034;SDS011;13809;48.632;11.576;2023-07-13T20:20:38;2.20;;;1.80;;
26034;SDS011;13809;48.632;11.576;2023-07-13T20:25:49;2.03;;;1.83;;
26034;SDS011;13809;48.632;11.576;2023-07-13T20:30:52;2.17;;;1.70;;
26034;SDS011;13809;48.632;11.576;2023-07-13T20:36:00;3.30;;;1.60;;
26034;SDS011;13809;48.632;11.576;2023-07-13T20:41:05;2.93;;;1.70;;
26034;SDS011;13809;48.632;11.576;2023-07-13T20:46:13;1.70;;;1.60;;
26034;SDS011;13809;48.632;11.576;2023-07-13T20:51:20;2.70;;;1.60;;
26034;SDS011;13809;48.632;11.576;2023-07-13T20:56:25;1.90;;;1.63;;
26034;SDS011;13809;48.632;11.576;2023-07-13T21:01:31;2.90;;;1.50;;
26034;SDS011;13809;48.632;11.576;2023-07-13T21:06:37;1.67;;;1.57;;
26034;SDS011;13809;48.632;11.576;2023-07-13T21:11:40;2.07;;;1.80;;
26034;SDS011;13809;48.632;11.576;2023-07-13T21:16:43;1.93;;;1.53;;
26034;SDS011;13809;48.632;11.576;2023-07-13T21:21:48;3.87;;;2.13;;
26034;SDS011;13809;48.632;11.576;2023-07-13T21:26:51;3.00;;;1.70;;
26034;SDS011;13809;48.632;11.576;2023-07-13T21:31:54;3.53;;;2.20;;
26034;SDS011;13809;48.632;11.576;2023-07-13T21:36:59;2.63;;;1.77;;
26034;SDS011;13809;48.632;11.576;2023-07-13T21:42:02;1.60;;;1.50;;
26034;SDS011;13809;48.632;11.576;2023-07-13T21:47:06;2.00;;;1.90;;
26034;SDS011;13809;48.632;11.576;2023-07-13T21:52:15;3.00;;;2.00;;
26034;SDS011;13809;48.632;11.576;2023-07-13T21:57:19;4.10;;;2.20;;
26034;SDS011;13809;48.632;11.576;2023-07-13T22:02:22;2.67;;;1.93;;
26034;SDS011;13809;48.632;11.576;2023-07-13T22:07:27;4.30;;;2.17;;
26034;SDS011;13809;48.632;11.576;2023-07-13T22:12:30;2.27;;;2.07;;
26034;SDS011;13809;48.632;11.576;2023-07-13T22:17:33;3.60;;;1.93;;
26034;SDS011;13809;48.632;11.576;2023-07-13T22:22:38;3.27;;;2.00;;
26034;SDS011;13809;48.632;11.576;2023-07-13T22:27:41;2.67;;;2.03;;
26034;SDS011;13809;48.632;11.576;2023-07-13T22:32:46;3.77;;;2.10;;
26034;SDS011;13809;48.632;11.576;2023-07-13T22:37:52;1.87;;;1.63;;
26034;SDS011;13809;48.632;11.576;2023-07-13T22:43:00;2.20;;;2.00;;
26034;SDS011;13809;48.632;11.576;2023-07-13T22:48:03;2.33;;;2.10;;
26034;SDS011;13809;48.632;11.576;2023-07-13T22:53:10;1.83;;;1.73;;
26034;SDS011;13809;48.632;11.576;2023-07-13T22:58:14;4.10;;;2.00;;
26034;SDS011;13809;48.632;11.576;2023-07-13T23:03:17;2.80;;;2.13;;
26034;SDS011;13809;48.632;11.576;2023-07-13T23:08:22;2.27;;;2.07;;
26034;SDS011;13809;48.632;11.576;2023-07-13T23:13:26;2.27;;;2.07;;
26034;SDS011;13809;48.632;11.576;2023-07-13T23:18:29;2.30;;;2.00;;
26034;SDS011;13809;48.632;11.576;2023-07-13T23:23:34;2.83;;;2.10;;
26034;SDS011;13809;48.632;11.576;2023-07-13T23:28:37;3.63;;;2.13;;
26034;SDS011;13809;48.632;11.576;2023-07-13T23:33:40;3.03;;;1.80;;
26034;SDS011;13809;48.632;11.576;2023-07-13T23:38:45;1.80;;;1.70;;
26034;SDS011;13809;48.632;11.576;2023-07-13T23:43:48;2.63;;;2.00;;
26034;SDS011;13809;48.632;11.576;2023-07-13T23:48:53;2.43;;;1.80;;
26034;SDS011;13809;48.632;11.576;2023-07-13T23:54:03;3.00;;;1.93;;
26034;SDS011;13809;48.632;11.576;2023-07-13T23:59:13;2.80;;;1.80;;
